Terminal Aerodrome Forecast
Issued by NWS

Home | Current Version | Previous Version | Text Only | Print | Product List | Glossary On
Versions: 1 2 3 4 5 6 7 8 9 10 11 12
000
FTUS45 KABQ 311127
TAFFMN
TAF
KFMN 311127Z 3112/0112 12007KT P6SM SCT050 BKN100
     FM311600 16006KT P6SM SCT050 SCT100
     FM312200 21008KT P6SM VCTS BKN070CB
     FM010300 09006KT P6SM VCSH BKN090
     FM010700 07006KT P6SM SCT040 BKN100=

USA.gov is the U.S. government's official web portal to all federal, state and local government web resources and services.